Indian Neck, Virginia
Current Conditions -  °F | °C
As of 9:15 PM on Monday 22 Dec 2014 (Local Time) from KXSA Reporting Station
Light Rain Light Rain  
Wind Chill: 34°   Ceiling: 200
Heat Index: 37°   Visibility: 1.7mi
Dew Point: 35°   Wind: 5mph
Humidity: 90%   Direction: 320°NW
Pressure: 30.09"   Gusts: NA
Location:  37.8769°N, 77.0499°W
Report Text: KXSA 230215Z AUTO 32004KT 1 3/4SM -RA OVC002 03/02 A3009 RMK AO2 T00300015
Loading
Personal Weather Stations






























Interactive Weather Map New forecast layout! Learn more

10-Day Weather Forecast

Advertisements
Track Severe Weather on mobile